Time;durP1;ratioP1;P1;durP2;ratioP2;P2;SDS_P1;SDS_P2;PMS_P1;PMS_P2;Temp;Humidity;BMP_temperature;BMP_pressure;BME280_temperature;BME280_humidity;BME280_pressure;Samples;Min_cycle;Max_cycle;Signal;HPM_P1;HPM_P2
2024/01/09 00:00:49;;;;;;;34.10;32.28;;;;;;;;;;4131391;28;20064;-65
2024/01/09 00:02:51;;;;;;;32.73;31.80;;;;;;;;;;4113837;28;20487;-65
2024/01/09 00:04:53;;;;;;;32.97;31.90;;;;;;;;;;4131324;28;20317;-65
2024/01/09 00:06:55;;;;;;;31.53;30.63;;;;;;;;;;4131576;28;20125;-65
2024/01/09 00:08:58;;;;;;;34.23;33.13;;;;;;;;;;4131366;28;20396;-65
2024/01/09 00:11:02;;;;;;;34.38;33.30;;;;;;;;;;4131431;28;20062;-65
2024/01/09 00:13:04;;;;;;;33.80;32.78;;;;;;;;;;4131565;28;20077;-66
2024/01/09 00:15:10;;;;;;;33.53;32.17;;;;;;;;;;4131110;28;20449;-65
2024/01/09 00:17:11;;;;;;;34.28;33.00;;;;;;;;;;4131619;28;20487;-65
2024/01/09 00:19:13;;;;;;;32.58;31.60;;;;;;;;;;4131127;28;20129;-65
2024/01/09 00:21:15;;;;;;;32.92;31.92;;;;;;;;;;4131530;28;20093;-65
2024/01/09 00:23:17;;;;;;;32.23;31.30;;;;;;;;;;4131285;28;20042;-65
2024/01/09 00:25:19;;;;;;;32.23;31.23;;;;;;;;;;4131264;28;20121;-65
2024/01/09 00:27:20;;;;;;;33.78;32.58;;;;;;;;;;4114230;28;20043;-65
2024/01/09 00:29:22;;;;;;;33.25;32.15;;;;;;;;;;4131575;28;20101;-66
2024/01/09 00:31:24;;;;;;;30.67;29.80;;;;;;;;;;4134205;28;20510;-65
2024/01/09 00:33:26;;;;;;;33.63;32.70;;;;;;;;;;4134272;28;20045;-65
2024/01/09 00:35:28;;;;;;;;;;;;;;;;;;4134730;28;20464;-62
2024/01/09 00:37:30;;;;;;;31.42;30.55;;;;;;;;;;4145472;28;19967;-61
2024/01/09 00:39:31;;;;;;;32.40;31.60;;;;;;;;;;4150700;28;20077;-61
2024/01/09 00:41:33;;;;;;;29.03;28.17;;;;;;;;;;4133191;28;20278;-61
2024/01/09 00:43:36;;;;;;;30.33;29.70;;;;;;;;;;4147200;28;20100;-62
2024/01/09 00:45:39;;;;;;;28.92;28.27;;;;;;;;;;4134295;28;20046;-62
2024/01/09 00:47:41;;;;;;;29.27;28.57;;;;;;;;;;4117003;28;20122;-61
2024/01/09 00:49:46;;;;;;;29.23;28.52;;;;;;;;;;4134225;28;20740;-61
2024/01/09 00:51:48;;;;;;;31.83;31.20;;;;;;;;;;4134067;28;20078;-61
2024/01/09 00:53:51;;;;;;;28.77;28.10;;;;;;;;;;4134037;28;20046;-61
2024/01/09 00:55:53;;;;;;;29.40;28.80;;;;;;;;;;4134085;28;20038;-61
2024/01/09 00:57:54;;;;;;;33.23;32.53;;;;;;;;;;4133886;28;20117;-61
2024/01/09 00:59:58;;;;;;;28.33;27.80;;;;;;;;;;4116920;28;20364;-61
2024/01/09 01:02:00;;;;;;;29.50;28.83;;;;;;;;;;4133804;28;20085;-61
2024/01/09 01:04:02;;;;;;;26.40;26.00;;;;;;;;;;4133627;28;20498;-62
2024/01/09 01:06:12;;;;;;;31.08;30.48;;;;;;;;;;4133802;28;20376;-61
2024/01/09 01:08:14;;;;;;;28.92;28.42;;;;;;;;;;4133722;28;20058;-61
2024/01/09 01:10:16;;;;;;;30.50;29.90;;;;;;;;;;4134066;28;20082;-62
2024/01/09 01:12:21;;;;;;;29.80;29.02;;;;;;;;;;4133772;28;20331;-62
2024/01/09 01:14:24;;;;;;;29.45;28.77;;;;;;;;;;4133758;28;20042;-61
2024/01/09 01:16:25;;;;;;;27.27;26.77;;;;;;;;;;4133608;28;20077;-62
2024/01/09 01:18:27;;;;;;;31.17;30.48;;;;;;;;;;4132683;28;20596;-62
2024/01/09 01:20:29;;;;;;;30.57;29.87;;;;;;;;;;4133539;28;20046;-61
2024/01/09 01:22:38;;;;;;;31.13;30.13;;;;;;;;;;4133678;28;20406;-61
2024/01/09 01:24:40;;;;;;;28.88;28.33;;;;;;;;;;4116538;28;20042;-61
2024/01/09 01:26:41;;;;;;;31.17;30.47;;;;;;;;;;4133436;28;20121;-61
2024/01/09 01:28:43;;;;;;;30.83;30.13;;;;;;;;;;4133417;28;20518;-61
2024/01/09 01:30:45;;;;;;;31.50;30.80;;;;;;;;;;4133325;28;20281;-61
2024/01/09 01:32:47;;;;;;;31.58;30.80;;;;;;;;;;4136561;28;20042;-61
2024/01/09 01:34:48;;;;;;;28.08;27.38;;;;;;;;;;4149456;28;20095;-61
2024/01/09 01:36:50;;;;;;;29.50;28.80;;;;;;;;;;4149551;28;20121;-61
2024/01/09 01:38:52;;;;;;;30.77;30.07;;;;;;;;;;4149683;28;20046;-61
2024/01/09 01:40:54;;;;;;;32.47;31.33;;;;;;;;;;4137767;28;20670;-62
2024/01/09 01:42:58;;;;;;;38.27;35.80;;;;;;;;;;4133185;28;20045;-62
2024/01/09 01:44:59;;;;;;;36.13;34.00;;;;;;;;;;4133327;28;20117;-62
2024/01/09 01:47:01;;;;;;;31.47;30.23;;;;;;;;;;4133603;28;20062;-65
2024/01/09 01:49:03;;;;;;;29.03;28.23;;;;;;;;;;4133115;28;20324;-65
2024/01/09 01:51:06;;;;;;;30.77;29.85;;;;;;;;;;4133214;28;20373;-65
2024/01/09 01:53:08;;;;;;;30.42;29.42;;;;;;;;;;4133347;28;20096;-65
2024/01/09 01:55:10;;;;;;;30.13;29.42;;;;;;;;;;4133157;28;20117;-65
2024/01/09 01:57:15;;;;;;;30.10;29.20;;;;;;;;;;4133229;28;20042;-65
2024/01/09 01:59:19;;;;;;;32.90;32.10;;;;;;;;;;4131702;28;20042;-65
2024/01/09 02:03:31;;;;;;;33.08;31.85;;;;;;;;;;4115449;28;20057;-67
2024/01/09 02:05:33;;;;;;;30.63;29.93;;;;;;;;;;4099487;29;20055;-67
2024/01/09 02:07:35;;;;;;;31.10;29.98;;;;;;;;;;4116857;28;20043;-67
2024/01/09 02:09:37;;;;;;;34.85;33.70;;;;;;;;;;4116728;28;20101;-67
2024/01/09 02:11:38;;;;;;;31.30;30.48;;;;;;;;;;4116595;28;20526;-67
2024/01/09 02:13:40;;;;;;;34.67;33.33;;;;;;;;;;4116615;28;20088;-67
2024/01/09 02:15:41;;;;;;;31.88;31.02;;;;;;;;;;4116663;28;20077;-67
2024/01/09 02:17:43;;;;;;;34.83;33.42;;;;;;;;;;4116679;28;20525;-67
2024/01/09 02:19:45;;;;;;;31.70;30.50;;;;;;;;;;4116196;28;20043;-67
2024/01/09 02:21:50;;;;;;;34.35;33.13;;;;;;;;;;4115337;28;20070;-68
2024/01/09 02:23:52;;;;;;;33.08;32.10;;;;;;;;;;4114915;28;20070;-67
2024/01/09 02:25:54;;;;;;;32.80;31.90;;;;;;;;;;4115071;28;20074;-67
2024/01/09 02:28:08;;;;;;;31.70;30.75;;;;;;;;;;4114986;28;20693;-68
2024/01/09 02:30:10;;;;;;;32.05;31.05;;;;;;;;;;4114855;28;20039;-67
2024/01/09 02:32:12;;;;;;;32.33;31.20;;;;;;;;;;4114677;28;20529;-66
2024/01/09 02:34:14;;;;;;;32.03;31.10;;;;;;;;;;4114775;28;20046;-66
2024/01/09 02:36:16;;;;;;;30.70;29.80;;;;;;;;;;4119053;28;20035;-68
2024/01/09 02:38:18;;;;;;;26.65;25.95;;;;;;;;;;4132213;28;20038;-67
2024/01/09 02:40:22;;;;;;;33.65;32.75;;;;;;;;;;4132335;28;20042;-68
2024/01/09 02:42:23;;;;;;;29.25;28.45;;;;;;;;;;4132188;28;20060;-68
2024/01/09 02:44:25;;;;;;;32.50;31.60;;;;;;;;;;4126711;28;20031;-68
2024/01/09 02:46:27;;;;;;;28.70;27.45;;;;;;;;;;4116566;28;20072;-67
2024/01/09 02:48:28;;;;;;;30.33;29.53;;;;;;;;;;4115367;28;20057;-67
2024/01/09 02:50:30;;;;;;;32.47;31.58;;;;;;;;;;4116370;28;20067;-68
2024/01/09 02:52:32;;;;;;;31.30;30.38;;;;;;;;;;4115763;28;20046;-68
2024/01/09 02:54:33;;;;;;;32.08;30.80;;;;;;;;;;4116354;28;20051;-67
2024/01/09 02:56:38;;;;;;;31.58;30.77;;;;;;;;;;4115881;28;20043;-67
2024/01/09 02:58:40;;;;;;;30.52;29.65;;;;;;;;;;4115945;28;20053;-67
2024/01/09 03:00:41;;;;;;;32.67;31.30;;;;;;;;;;4115952;28;20047;-67
2024/01/09 03:02:43;;;;;;;33.97;32.88;;;;;;;;;;4115566;28;20298;-67
2024/01/09 03:04:45;;;;;;;30.97;30.17;;;;;;;;;;4116028;28;20517;-67
2024/01/09 03:06:47;;;;;;;33.63;32.33;;;;;;;;;;4113637;28;20047;-67
2024/01/09 03:08:49;;;;;;;32.25;31.35;;;;;;;;;;4115780;28;20126;-68
2024/01/09 03:10:50;;;;;;;31.67;30.50;;;;;;;;;;4115802;28;20101;-68
2024/01/09 03:12:52;;;;;;;34.67;33.58;;;;;;;;;;4115779;28;20293;-67
2024/01/09 03:14:55;;;;;;;30.63;29.83;;;;;;;;;;4115662;28;20042;-67
2024/01/09 03:16:56;;;;;;;34.55;33.25;;;;;;;;;;4115844;28;20035;-69
2024/01/09 03:18:58;;;;;;;34.80;33.50;;;;;;;;;;4115758;28;20102;-68
2024/01/09 03:21:00;;;;;;;34.13;32.83;;;;;;;;;;4115828;28;20047;-69
2024/01/09 03:23:01;;;;;;;30.60;29.65;;;;;;;;;;4115659;28;20290;-69
2024/01/09 03:25:03;;;;;;;32.92;31.48;;;;;;;;;;4115867;28;20043;-68
2024/01/09 03:27:04;;;;;;;32.67;31.65;;;;;;;;;;4115739;28;20043;-68
2024/01/09 03:29:06;;;;;;;33.70;32.77;;;;;;;;;;4115574;28;20039;-68
2024/01/09 03:31:17;;;;;;;28.17;27.52;;;;;;;;;;4115730;28;20047;-68
2024/01/09 03:33:19;;;;;;;33.13;32.05;;;;;;;;;;4116120;28;20047;-68
2024/01/09 03:35:20;;;;;;;34.08;32.75;;;;;;;;;;4115519;28;20499;-68
2024/01/09 03:37:22;;;;;;;33.57;32.37;;;;;;;;;;4115568;28;20102;-68
2024/01/09 03:39:24;;;;;;;34.78;33.67;;;;;;;;;;4115461;28;20290;-68
2024/01/09 03:41:25;;;;;;;29.43;28.63;;;;;;;;;;4115353;28;20058;-68
2024/01/09 03:43:27;;;;;;;34.13;33.08;;;;;;;;;;4116049;28;20093;-68
2024/01/09 03:45:29;;;;;;;33.13;32.03;;;;;;;;;;4131727;28;20046;-68
2024/01/09 03:47:31;;;;;;;31.35;30.27;;;;;;;;;;4131712;28;20042;-68
2024/01/09 03:49:33;;;;;;;30.67;29.77;;;;;;;;;;4131733;28;20125;-69
2024/01/09 03:51:34;;;;;;;32.30;31.17;;;;;;;;;;4131632;28;20096;-68
2024/01/09 03:53:36;;;;;;;34.00;32.87;;;;;;;;;;4114153;28;20054;-68
2024/01/09 03:55:37;;;;;;;32.20;31.00;;;;;;;;;;4131564;28;20096;-69
2024/01/09 03:57:39;;;;;;;27.80;26.90;;;;;;;;;;4114249;28;20043;-69
2024/01/09 03:59:42;;;;;;;30.85;29.95;;;;;;;;;;4126772;28;20524;-69
2024/01/09 04:01:43;;;;;;;29.33;28.52;;;;;;;;;;4114747;28;20039;-69
2024/01/09 04:03:45;;;;;;;31.05;29.92;;;;;;;;;;4116050;28;20039;-69
2024/01/09 04:05:47;;;;;;;34.83;33.72;;;;;;;;;;4118633;28;20043;-69
2024/01/09 04:07:49;;;;;;;30.03;28.97;;;;;;;;;;4118856;28;20054;-68
2024/01/09 04:09:50;;;;;;;32.15;31.00;;;;;;;;;;4118549;28;20289;-68
2024/01/09 04:11:52;;;;;;;29.10;28.40;;;;;;;;;;4118872;28;20053;-69
2024/01/09 04:13:54;;;;;;;29.77;28.75;;;;;;;;;;4118640;28;20045;-68
2024/01/09 04:15:56;;;;;;;29.10;27.95;;;;;;;;;;4118349;28;20038;-68
2024/01/09 04:17:58;;;;;;;30.90;30.10;;;;;;;;;;4118727;28;20050;-68
2024/01/09 04:20:02;;;;;;;31.93;31.13;;;;;;;;;;4118397;28;20038;-68
2024/01/09 04:22:03;;;;;;;29.42;28.52;;;;;;;;;;4118478;28;20502;-69
2024/01/09 04:24:05;;;;;;;30.77;29.73;;;;;;;;;;4118243;28;20047;-69
2024/01/09 04:26:06;;;;;;;31.42;30.52;;;;;;;;;;4118442;28;20050;-69
2024/01/09 04:28:08;;;;;;;30.17;29.23;;;;;;;;;;4118343;28;20047;-68
2024/01/09 04:30:10;;;;;;;27.55;26.85;;;;;;;;;;4118218;28;20122;-67
2024/01/09 04:32:12;;;;;;;31.77;30.88;;;;;;;;;;4118168;28;20047;-68
2024/01/09 04:34:13;;;;;;;32.97;31.80;;;;;;;;;;4118475;28;20070;-68
2024/01/09 04:36:16;;;;;;;28.05;27.27;;;;;;;;;;4112023;28;20102;-68
2024/01/09 04:38:18;;;;;;;29.90;29.10;;;;;;;;;;4118361;28;20031;-68
2024/01/09 04:40:20;;;;;;;30.45;29.55;;;;;;;;;;4118371;28;20134;-68
2024/01/09 04:42:21;;;;;;;30.70;29.80;;;;;;;;;;4118076;28;20097;-68
2024/01/09 04:44:23;;;;;;;31.42;30.63;;;;;;;;;;4126103;28;20042;-68
2024/01/09 04:46:25;;;;;;;34.03;32.90;;;;;;;;;;4134123;28;20042;-68
2024/01/09 04:48:26;;;;;;;32.58;31.67;;;;;;;;;;4134133;28;20080;-68
2024/01/09 04:50:28;;;;;;;31.13;30.23;;;;;;;;;;4134385;28;20120;-68
2024/01/09 04:52:30;;;;;;;32.07;31.27;;;;;;;;;;4133963;28;20502;-68
2024/01/09 04:54:31;;;;;;;32.58;31.58;;;;;;;;;;4132706;28;20050;-68
2024/01/09 04:56:33;;;;;;;29.17;28.23;;;;;;;;;;4124505;28;20043;-67
2024/01/09 04:58:35;;;;;;;31.27;30.17;;;;;;;;;;4118008;28;20402;-68
2024/01/09 05:00:36;;;;;;;34.08;32.80;;;;;;;;;;4100359;29;20366;-68
2024/01/09 05:02:38;;;;;;;30.80;29.87;;;;;;;;;;4117435;28;20511;-68
2024/01/09 05:04:40;;;;;;;34.08;32.67;;;;;;;;;;4117896;28;20598;-68
2024/01/09 05:06:41;;;;;;;35.22;33.90;;;;;;;;;;4117886;28;20090;-68
2024/01/09 05:08:43;;;;;;;32.53;31.38;;;;;;;;;;4117449;28;20511;-68
2024/01/09 05:10:45;;;;;;;33.45;32.33;;;;;;;;;;4117496;28;20109;-68
2024/01/09 05:12:47;;;;;;;30.33;29.52;;;;;;;;;;4116745;28;20035;-68
2024/01/09 05:14:48;;;;;;;34.78;33.75;;;;;;;;;;4116799;28;20054;-68
2024/01/09 05:16:50;;;;;;;29.42;28.52;;;;;;;;;;4117451;28;20085;-68
2024/01/09 05:18:52;;;;;;;31.57;30.57;;;;;;;;;;4116987;28;20042;-68
2024/01/09 05:20:53;;;;;;;28.90;28.03;;;;;;;;;;4117443;28;20102;-67
2024/01/09 05:22:55;;;;;;;30.05;29.25;;;;;;;;;;4116487;28;20675;-68
2024/01/09 05:24:57;;;;;;;30.25;29.38;;;;;;;;;;4117255;28;20055;-68
2024/01/09 05:26:58;;;;;;;32.58;31.27;;;;;;;;;;4100432;29;20054;-68
2024/01/09 05:29:01;;;;;;;;;;;;;;;;;;4117952;28;20050;-65
2024/01/09 05:31:03;;;;;;;31.10;30.20;;;;;;;;;;4117441;28;19930;-66
2024/01/09 05:33:05;;;;;;;34.63;33.22;;;;;;;;;;4117256;28;20097;-66
2024/01/09 05:35:08;;;;;;;31.23;30.13;;;;;;;;;;4117350;28;20050;-67
2024/01/09 05:37:10;;;;;;;31.48;30.58;;;;;;;;;;4115995;28;20301;-68
2024/01/09 05:39:11;;;;;;;29.90;29.03;;;;;;;;;;4116982;28;20117;-67
2024/01/09 05:41:22;;;;;;;29.63;28.63;;;;;;;;;;4117505;28;20448;-66
2024/01/09 05:43:24;;;;;;;32.65;31.48;;;;;;;;;;4117266;28;20121;-66
2024/01/09 05:45:25;;;;;;;30.97;29.93;;;;;;;;;;4117250;28;20039;-67
2024/01/09 05:47:27;;;;;;;28.63;27.92;;;;;;;;;;4116881;28;20038;-66
2024/01/09 05:49:29;;;;;;;31.90;30.80;;;;;;;;;;4117004;28;20050;-67
2024/01/09 05:51:32;;;;;;;32.33;31.33;;;;;;;;;;4116090;28;21067;-66
2024/01/09 05:53:33;;;;;;;31.83;30.73;;;;;;;;;;4116743;28;20054;-67
2024/01/09 05:55:35;;;;;;;31.45;30.55;;;;;;;;;;4116865;28;20126;-67
2024/01/09 05:57:36;;;;;;;32.85;31.85;;;;;;;;;;4117014;28;20073;-67
2024/01/09 05:59:38;;;;;;;32.47;31.73;;;;;;;;;;4117022;28;20470;-66
2024/01/09 06:01:40;;;;;;;30.73;29.92;;;;;;;;;;4116094;28;20047;-67
2024/01/09 06:03:42;;;;;;;31.23;30.33;;;;;;;;;;4118772;28;20070;-67
2024/01/09 06:05:43;;;;;;;30.92;30.02;;;;;;;;;;4116158;28;20038;-66
2024/01/09 06:07:45;;;;;;;30.13;29.42;;;;;;;;;;4116424;28;20057;-67
2024/01/09 06:09:47;;;;;;;31.33;30.45;;;;;;;;;;4115894;28;20054;-67
2024/01/09 06:11:48;;;;;;;31.73;30.97;;;;;;;;;;4116373;28;20046;-65
2024/01/09 06:13:50;;;;;;;29.35;28.52;;;;;;;;;;4098986;28;20188;-67
2024/01/09 06:15:52;;;;;;;32.20;31.30;;;;;;;;;;4114484;28;20046;-67
2024/01/09 06:17:54;;;;;;;26.95;26.45;;;;;;;;;;4115902;28;20558;-59
2024/01/09 06:19:56;;;;;;;29.27;28.17;;;;;;;;;;4115641;28;20053;-59
2024/01/09 06:21:57;;;;;;;30.50;29.65;;;;;;;;;;4115980;28;20562;-60
2024/01/09 06:23:59;;;;;;;30.10;29.25;;;;;;;;;;4106858;28;20050;-59
2024/01/09 06:26:01;;;;;;;29.23;28.10;;;;;;;;;;4115662;28;20043;-59
2024/01/09 06:28:02;;;;;;;31.38;30.02;;;;;;;;;;4115805;28;20080;-59
2024/01/09 06:30:04;;;;;;;32.93;32.07;;;;;;;;;;4125226;28;20182;-59
2024/01/09 06:32:07;;;;;;;32.22;31.23;;;;;;;;;;4115211;28;20085;-59
2024/01/09 06:34:09;;;;;;;;;;;;;;;;;;4114144;28;20049;-59
2024/01/09 06:36:10;;;;;;;29.50;28.60;;;;;;;;;;4115114;28;19922;-59
2024/01/09 06:38:13;;;;;;;32.03;31.15;;;;;;;;;;4116382;28;20046;-62
2024/01/09 06:40:19;;;;;;;30.10;29.30;;;;;;;;;;4116235;28;20126;-62
2024/01/09 06:42:21;;;;;;;29.15;28.33;;;;;;;;;;4116474;28;20049;-62
2024/01/09 06:44:23;;;;;;;35.60;34.38;;;;;;;;;;4124465;28;20034;-61
2024/01/09 06:46:24;;;;;;;34.63;32.87;;;;;;;;;;4132172;28;20074;-62
2024/01/09 06:48:26;;;;;;;35.65;34.30;;;;;;;;;;4127377;28;20368;-62
2024/01/09 06:50:28;;;;;;;33.15;31.50;;;;;;;;;;4114882;28;20102;-62
2024/01/09 06:52:38;;;;;;;30.48;29.58;;;;;;;;;;4114318;28;20589;-61
2024/01/09 06:54:40;;;;;;;30.53;29.33;;;;;;;;;;4114435;28;20043;-61
2024/01/09 06:56:43;;;;;;;31.08;30.27;;;;;;;;;;4114437;28;20093;-62
2024/01/09 06:58:45;;;;;;;31.88;30.98;;;;;;;;;;4114658;28;20035;-61
2024/01/09 07:00:47;;;;;;;36.13;34.85;;;;;;;;;;4097031;29;20106;-61
2024/01/09 07:02:49;;;;;;;31.40;29.80;;;;;;;;;;4115566;28;20043;-62
2024/01/09 07:04:51;;;;;;;30.53;29.60;;;;;;;;;;4115870;28;20701;-62
2024/01/09 07:06:52;;;;;;;32.17;31.17;;;;;;;;;;4115742;28;20574;-61
2024/01/09 07:08:54;;;;;;;33.37;32.27;;;;;;;;;;4115447;28;20503;-62
2024/01/09 07:10:57;;;;;;;32.22;31.33;;;;;;;;;;4115787;28;20054;-62
2024/01/09 07:12:58;;;;;;;33.17;32.00;;;;;;;;;;4115953;28;20047;-62
2024/01/09 07:15:00;;;;;;;36.10;34.70;;;;;;;;;;4115531;28;20042;-62
2024/01/09 07:17:03;;;;;;;30.00;29.10;;;;;;;;;;4115572;28;20035;-62
2024/01/09 07:19:05;;;;;;;31.48;30.33;;;;;;;;;;4115778;28;20038;-62
2024/01/09 07:21:07;;;;;;;31.85;30.77;;;;;;;;;;4115478;28;20601;-62
2024/01/09 07:23:08;;;;;;;31.77;30.67;;;;;;;;;;4115640;28;20039;-62
2024/01/09 07:25:20;;;;;;;32.15;31.15;;;;;;;;;;4115722;28;20047;-62
2024/01/09 07:27:22;;;;;;;31.48;30.48;;;;;;;;;;4115757;28;20050;-62
2024/01/09 07:29:23;;;;;;;32.08;30.90;;;;;;;;;;4115681;28;20050;-62
2024/01/09 07:31:25;;;;;;;32.67;31.57;;;;;;;;;;4115667;28;20046;-62
2024/01/09 07:33:27;;;;;;;34.17;33.08;;;;;;;;;;4115820;28;20282;-62
2024/01/09 07:35:34;;;;;;;30.07;28.90;;;;;;;;;;4115573;28;20060;-62
2024/01/09 07:37:36;;;;;;;33.22;32.05;;;;;;;;;;4115303;28;20402;-62
2024/01/09 07:39:37;;;;;;;30.77;29.77;;;;;;;;;;4115859;28;20089;-62
2024/01/09 07:41:39;;;;;;;31.85;30.65;;;;;;;;;;4115655;28;20042;-61
2024/01/09 07:43:41;;;;;;;35.22;34.15;;;;;;;;;;4118036;28;20034;-62
2024/01/09 07:45:42;;;;;;;33.85;32.55;;;;;;;;;;4118857;28;20050;-62
2024/01/09 07:47:44;;;;;;;34.85;32.83;;;;;;;;;;4115601;28;20050;-62
2024/01/09 07:49:45;;;;;;;35.73;33.90;;;;;;;;;;4115606;28;20057;-62
2024/01/09 07:51:47;;;;;;;35.60;33.63;;;;;;;;;;4115525;28;20290;-62
2024/01/09 07:53:49;;;;;;;37.25;34.90;;;;;;;;;;4115784;28;20043;-62
2024/01/09 07:55:51;;;;;;;36.28;34.17;;;;;;;;;;4115673;28;20047;-62
2024/01/09 07:57:52;;;;;;;34.43;32.93;;;;;;;;;;4115443;28;20065;-62
2024/01/09 07:59:54;;;;;;;36.25;33.80;;;;;;;;;;4115474;28;20298;-62
2024/01/09 08:01:56;;;;;;;36.43;34.47;;;;;;;;;;4114956;28;20046;-62
2024/01/09 08:03:57;;;;;;;33.30;31.95;;;;;;;;;;4115496;28;20292;-62
2024/01/09 08:05:59;;;;;;;33.15;31.77;;;;;;;;;;4115204;28;20051;-62
2024/01/09 08:08:01;;;;;;;31.10;29.65;;;;;;;;;;4115345;28;20490;-62
2024/01/09 08:10:03;;;;;;;34.20;32.80;;;;;;;;;;4114266;28;20518;-59
2024/01/09 08:12:04;;;;;;;33.45;32.15;;;;;;;;;;4115462;28;20113;-59
2024/01/09 08:14:06;;;;;;;35.80;34.25;;;;;;;;;;4115443;28;20038;-59
2024/01/09 08:16:08;;;;;;;33.05;31.77;;;;;;;;;;4115400;28;20053;-60
2024/01/09 08:18:09;;;;;;;32.83;31.50;;;;;;;;;;4115294;28;20054;-60
2024/01/09 08:20:11;;;;;;;32.63;31.58;;;;;;;;;;4115343;28;20047;-59
2024/01/09 08:22:13;;;;;;;33.33;32.20;;;;;;;;;;4114962;28;20042;-59
2024/01/09 08:24:18;;;;;;;34.00;32.88;;;;;;;;;;4115501;28;20292;-59
2024/01/09 08:26:22;;;;;;;33.05;31.67;;;;;;;;;;4115707;28;20094;-60
2024/01/09 08:28:24;;;;;;;34.38;32.70;;;;;;;;;;4115406;28;20043;-60
2024/01/09 08:30:26;;;;;;;33.78;32.47;;;;;;;;;;4115316;28;20557;-59
2024/01/09 08:32:30;;;;;;;31.02;29.70;;;;;;;;;;4115199;28;20054;-59
2024/01/09 08:34:32;;;;;;;34.83;32.88;;;;;;;;;;4115346;28;20495;-59
2024/01/09 08:36:34;;;;;;;33.78;31.77;;;;;;;;;;4115213;28;20058;-59
2024/01/09 08:38:35;;;;;;;32.90;31.40;;;;;;;;;;4114888;28;20448;-59
2024/01/09 08:40:37;;;;;;;32.60;30.10;;;;;;;;;;4115104;28;20038;-60
2024/01/09 08:42:42;;;;;;;33.08;31.83;;;;;;;;;;4115027;28;20042;-59
2024/01/09 08:44:44;;;;;;;32.10;31.02;;;;;;;;;;4126314;28;20046;-60
2024/01/09 08:46:46;;;;;;;30.95;29.95;;;;;;;;;;4131030;28;20042;-59
2024/01/09 08:48:47;;;;;;;32.33;31.10;;;;;;;;;;4131327;28;20038;-59
2024/01/09 08:50:49;;;;;;;32.53;31.02;;;;;;;;;;4131809;28;20049;-59
2024/01/09 08:52:52;;;;;;;33.03;32.07;;;;;;;;;;4134233;28;20126;-59
2024/01/09 08:54:54;;;;;;;34.15;32.53;;;;;;;;;;4133078;28;20517;-59
2024/01/09 08:56:55;;;;;;;31.02;29.92;;;;;;;;;;4116571;28;20335;-59
2024/01/09 08:58:57;;;;;;;31.10;29.90;;;;;;;;;;4133858;28;20034;-59
2024/01/09 09:00:59;;;;;;;32.65;31.58;;;;;;;;;;4133815;28;20317;-59
2024/01/09 09:03:00;;;;;;;29.93;28.90;;;;;;;;;;4122174;28;20574;-59
2024/01/09 09:05:02;;;;;;;28.27;27.50;;;;;;;;;;4117967;28;20073;-59
2024/01/09 09:07:04;;;;;;;32.73;31.60;;;;;;;;;;4117633;28;20041;-59
2024/01/09 09:09:05;;;;;;;29.50;28.23;;;;;;;;;;4117613;28;20043;-59
2024/01/09 09:11:07;;;;;;;32.47;30.80;;;;;;;;;;4117575;28;20039;-59
2024/01/09 09:13:09;;;;;;;32.00;30.25;;;;;;;;;;4117825;28;20039;-60
2024/01/09 09:15:11;;;;;;;34.40;32.13;;;;;;;;;;4117774;28;20047;-58
2024/01/09 09:17:14;;;;;;;32.73;30.93;;;;;;;;;;4117975;28;20043;-60
2024/01/09 09:19:17;;;;;;;30.88;29.73;;;;;;;;;;4117554;28;20282;-60
2024/01/09 09:21:19;;;;;;;31.80;30.48;;;;;;;;;;4117656;28;20529;-59
2024/01/09 09:23:21;;;;;;;30.73;29.67;;;;;;;;;;4117545;28;20430;-59
2024/01/09 09:25:23;;;;;;;31.25;29.85;;;;;;;;;;4117591;28;20043;-59
2024/01/09 09:27:24;;;;;;;33.53;32.23;;;;;;;;;;4117720;28;20047;-59
2024/01/09 09:29:26;;;;;;;30.88;29.73;;;;;;;;;;4117342;28;20437;-59
2024/01/09 09:31:38;;;;;;;32.13;30.80;;;;;;;;;;4117564;28;20047;-59
2024/01/09 09:33:43;;;;;;;31.07;29.90;;;;;;;;;;4117367;28;20053;-60
2024/01/09 09:35:45;;;;;;;35.08;33.35;;;;;;;;;;4117236;28;20301;-59
2024/01/09 09:37:47;;;;;;;36.78;35.20;;;;;;;;;;4117388;28;20049;-59
2024/01/09 09:39:48;;;;;;;31.70;30.33;;;;;;;;;;4117357;28;20042;-59
2024/01/09 09:41:54;;;;;;;29.80;28.63;;;;;;;;;;4116231;28;20090;-59
2024/01/09 09:43:56;;;;;;;32.45;31.08;;;;;;;;;;4121624;28;20121;-59
2024/01/09 09:46:00;;;;;;;33.75;32.58;;;;;;;;;;4133359;28;20054;-60
2024/01/09 09:48:06;;;;;;;32.88;31.63;;;;;;;;;;4133249;28;20069;-60
2024/01/09 09:50:09;;;;;;;31.42;30.35;;;;;;;;;;4132128;28;20042;-59
2024/01/09 09:52:11;;;;;;;31.05;29.67;;;;;;;;;;4131887;28;20177;-59
2024/01/09 09:54:13;;;;;;;31.85;30.75;;;;;;;;;;4133067;28;20042;-59
2024/01/09 09:56:15;;;;;;;36.60;35.28;;;;;;;;;;4133163;28;20042;-59
2024/01/09 09:58:17;;;;;;;32.72;31.40;;;;;;;;;;4132943;28;20498;-59
2024/01/09 10:00:18;;;;;;;34.17;32.88;;;;;;;;;;4132897;28;20066;-59
2024/01/09 10:02:24;;;;;;;36.37;34.40;;;;;;;;;;4125467;28;20511;-59
2024/01/09 10:04:29;;;;;;;33.25;31.88;;;;;;;;;;4117205;28;20378;-59
2024/01/09 10:06:33;;;;;;;34.85;33.65;;;;;;;;;;4116859;28;20035;-60
2024/01/09 10:08:35;;;;;;;32.47;31.10;;;;;;;;;;4116833;28;20446;-59
2024/01/09 10:10:37;;;;;;;34.05;32.75;;;;;;;;;;4116888;28;20067;-59
2024/01/09 10:12:39;;;;;;;31.13;30.05;;;;;;;;;;4116964;28;20042;-60
2024/01/09 10:15:01;;;;;;;33.63;32.22;;;;;;;;;;4116666;28;20038;-60
2024/01/09 10:17:05;;;;;;;30.67;29.58;;;;;;;;;;4116668;28;20051;-60
2024/01/09 10:19:07;;;;;;;34.10;32.70;;;;;;;;;;4116737;28;20447;-59
2024/01/09 10:21:08;;;;;;;34.77;32.47;;;;;;;;;;4116479;28;20117;-60
2024/01/09 10:23:11;;;;;;;29.70;28.83;;;;;;;;;;4116579;28;20657;-59
2024/01/09 10:25:13;;;;;;;29.10;28.20;;;;;;;;;;4116622;28;20073;-59
2024/01/09 10:27:18;;;;;;;32.70;31.38;;;;;;;;;;4116568;28;20430;-60
2024/01/09 10:29:21;;;;;;;30.08;29.13;;;;;;;;;;4116668;28;20069;-60
2024/01/09 10:31:23;;;;;;;33.58;32.38;;;;;;;;;;4117036;28;20483;-60
2024/01/09 10:33:25;;;;;;;31.58;30.55;;;;;;;;;;4116635;28;20494;-59
2024/01/09 10:35:27;;;;;;;35.20;34.03;;;;;;;;;;4116607;28;20047;-59
2024/01/09 10:37:29;;;;;;;34.00;32.70;;;;;;;;;;4116367;28;20580;-60
2024/01/09 10:39:31;;;;;;;35.03;33.72;;;;;;;;;;4116231;28;20573;-59
2024/01/09 10:41:33;;;;;;;31.17;30.08;;;;;;;;;;4116422;28;20038;-59
2024/01/09 10:43:35;;;;;;;32.08;30.88;;;;;;;;;;4100994;28;20516;-59
2024/01/09 10:45:36;;;;;;;33.17;32.08;;;;;;;;;;4132477;28;20089;-59
2024/01/09 10:47:39;;;;;;;34.45;33.30;;;;;;;;;;4118994;28;20094;-60
2024/01/09 10:49:41;;;;;;;33.35;32.15;;;;;;;;;;4115309;28;20039;-59
2024/01/09 10:51:43;;;;;;;30.05;28.95;;;;;;;;;;4114801;28;20495;-59
2024/01/09 10:53:47;;;;;;;36.60;34.80;;;;;;;;;;4116042;28;20439;-59
2024/01/09 10:55:49;;;;;;;34.45;33.00;;;;;;;;;;4116089;28;20039;-59
2024/01/09 10:57:51;;;;;;;36.33;34.85;;;;;;;;;;4115985;28;20066;-59
2024/01/09 10:59:53;;;;;;;29.83;28.83;;;;;;;;;;4115855;28;20054;-60
2024/01/09 11:01:55;;;;;;;;;;;;;;;;;;4115555;28;20111;-59
2024/01/09 11:03:56;;;;;;;32.60;31.45;;;;;;;;;;4115604;28;19969;-59
2024/01/09 11:05:58;;;;;;;31.80;30.80;;;;;;;;;;4115772;28;20046;-59
2024/01/09 11:08:03;;;;;;;34.13;32.63;;;;;;;;;;4114499;28;20398;-60
2024/01/09 11:10:06;;;;;;;31.17;30.23;;;;;;;;;;4115217;28;20051;-59
2024/01/09 11:12:07;;;;;;;;;;;;;;;;;;4121533;28;20042;-60
2024/01/09 11:14:09;;;;;;;31.98;31.02;;;;;;;;;;4125620;28;19921;-60
2024/01/09 11:16:11;;;;;;;32.70;31.70;;;;;;;;;;4115609;28;20042;-60
2024/01/09 11:18:15;;;;;;;31.00;30.08;;;;;;;;;;4115448;28;20155;-59
2024/01/09 11:20:17;;;;;;;31.13;30.02;;;;;;;;;;4115552;28;20045;-59
2024/01/09 11:22:19;;;;;;;33.33;31.77;;;;;;;;;;4116054;28;20034;-60
2024/01/09 11:24:27;;;;;;;32.75;31.17;;;;;;;;;;4115925;28;20050;-60
2024/01/09 11:26:31;;;;;;;30.75;29.60;;;;;;;;;;4115373;28;20045;-59
2024/01/09 11:28:36;;;;;;;33.88;32.25;;;;;;;;;;4115190;28;20068;-60
2024/01/09 11:30:38;;;;;;;34.28;32.80;;;;;;;;;;4112873;28;20129;-59
2024/01/09 11:32:40;;;;;;;35.00;33.42;;;;;;;;;;4115097;28;20039;-60
2024/01/09 11:34:47;;;;;;;31.57;30.47;;;;;;;;;;4115567;28;20058;-59
2024/01/09 11:36:50;;;;;;;32.72;31.30;;;;;;;;;;4115401;28;20074;-59
2024/01/09 11:38:53;;;;;;;35.95;34.28;;;;;;;;;;4115256;28;20035;-59
2024/01/09 11:40:54;;;;;;;36.97;35.20;;;;;;;;;;4115623;28;20038;-62
2024/01/09 11:42:57;;;;;;;33.97;32.50;;;;;;;;;;4115729;28;20403;-62
2024/01/09 11:44:58;;;;;;;31.83;30.50;;;;;;;;;;4125885;28;20046;-62
2024/01/09 11:47:00;;;;;;;31.80;30.50;;;;;;;;;;4115528;28;20047;-62
2024/01/09 11:49:03;;;;;;;33.10;31.80;;;;;;;;;;4115221;28;20465;-62
2024/01/09 11:51:04;;;;;;;;;;;;;;;;;;4115608;28;20051;-62
2024/01/09 11:53:06;;;;;;;34.30;32.90;;;;;;;;;;4114216;28;19992;-62
2024/01/09 11:55:09;;;;;;;33.83;32.45;;;;;;;;;;4113908;28;20130;-62